sensor_id;sensor_type;location;lat;lon;timestamp;P1;durP1;ratioP1;P2;durP2;ratioP2
75408;SDS011;63979;55.644;37.734;2023-04-03T00:02:30;13.60;;;7.55;;
75408;SDS011;63979;55.644;37.734;2023-04-03T00:07:31;11.00;;;7.65;;
75408;SDS011;63979;55.644;37.734;2023-04-03T00:12:32;13.52;;;7.03;;
75408;SDS011;63979;55.644;37.734;2023-04-03T00:17:33;12.45;;;7.28;;
75408;SDS011;63979;55.644;37.734;2023-04-03T00:22:35;12.20;;;6.68;;
75408;SDS011;63979;55.644;37.734;2023-04-03T00:27:39;12.35;;;7.80;;
75408;SDS011;63979;55.644;37.734;2023-04-03T00:32:41;10.35;;;7.25;;
75408;SDS011;63979;55.644;37.734;2023-04-03T00:37:42;13.73;;;8.13;;
75408;SDS011;63979;55.644;37.734;2023-04-03T00:42:45;10.35;;;7.10;;
75408;SDS011;63979;55.644;37.734;2023-04-03T00:47:47;11.32;;;7.10;;
75408;SDS011;63979;55.644;37.734;2023-04-03T00:52:48;11.73;;;7.25;;
75408;SDS011;63979;55.644;37.734;2023-04-03T00:57:50;13.55;;;7.47;;
75408;SDS011;63979;55.644;37.734;2023-04-03T01:02:53;17.75;;;9.13;;
75408;SDS011;63979;55.644;37.734;2023-04-03T01:07:54;10.00;;;7.18;;
75408;SDS011;63979;55.644;37.734;2023-04-03T01:12:55;12.70;;;7.82;;
75408;SDS011;63979;55.644;37.734;2023-04-03T01:17:57;13.82;;;8.20;;
75408;SDS011;63979;55.644;37.734;2023-04-03T01:28:11;16.85;;;8.50;;
75408;SDS011;63979;55.644;37.734;2023-04-03T01:33:16;13.85;;;7.95;;
75408;SDS011;63979;55.644;37.734;2023-04-03T01:38:17;17.10;;;7.63;;
75408;SDS011;63979;55.644;37.734;2023-04-03T01:43:18;15.02;;;9.15;;
75408;SDS011;63979;55.644;37.734;2023-04-03T01:48:20;12.02;;;8.60;;
75408;SDS011;63979;55.644;37.734;2023-04-03T01:53:21;28.38;;;9.70;;
75408;SDS011;63979;55.644;37.734;2023-04-03T01:58:23;16.23;;;8.82;;
75408;SDS011;63979;55.644;37.734;2023-04-03T02:03:24;15.02;;;9.75;;
75408;SDS011;63979;55.644;37.734;2023-04-03T02:08:25;21.75;;;11.10;;
75408;SDS011;63979;55.644;37.734;2023-04-03T02:13:26;17.05;;;10.05;;
75408;SDS011;63979;55.644;37.734;2023-04-03T02:18:27;19.63;;;10.35;;
75408;SDS011;63979;55.644;37.734;2023-04-03T02:23:28;18.52;;;10.07;;
75408;SDS011;63979;55.644;37.734;2023-04-03T02:28:29;17.20;;;9.93;;
75408;SDS011;63979;55.644;37.734;2023-04-03T02:33:30;22.60;;;10.57;;
75408;SDS011;63979;55.644;37.734;2023-04-03T02:38:31;18.00;;;9.73;;
75408;SDS011;63979;55.644;37.734;2023-04-03T02:43:32;15.18;;;10.18;;
75408;SDS011;63979;55.644;37.734;2023-04-03T02:48:34;19.15;;;10.55;;
75408;SDS011;63979;55.644;37.734;2023-04-03T02:53:36;18.30;;;10.38;;
75408;SDS011;63979;55.644;37.734;2023-04-03T02:58:36;17.98;;;10.63;;
75408;SDS011;63979;55.644;37.734;2023-04-03T03:03:38;20.50;;;11.38;;
75408;SDS011;63979;55.644;37.734;2023-04-03T03:08:39;17.60;;;10.07;;
75408;SDS011;63979;55.644;37.734;2023-04-03T03:13:40;21.45;;;12.13;;
75408;SDS011;63979;55.644;37.734;2023-04-03T03:18:41;25.73;;;10.90;;
75408;SDS011;63979;55.644;37.734;2023-04-03T03:23:42;21.45;;;10.20;;
75408;SDS011;63979;55.644;37.734;2023-04-03T03:28:43;25.13;;;12.35;;
75408;SDS011;63979;55.644;37.734;2023-04-03T03:33:45;20.33;;;10.77;;
75408;SDS011;63979;55.644;37.734;2023-04-03T03:38:46;21.45;;;10.23;;
75408;SDS011;63979;55.644;37.734;2023-04-03T03:43:47;21.95;;;11.38;;
75408;SDS011;63979;55.644;37.734;2023-04-03T03:48:49;19.27;;;10.77;;
75408;SDS011;63979;55.644;37.734;2023-04-03T03:53:50;21.05;;;11.10;;
75408;SDS011;63979;55.644;37.734;2023-04-03T03:58:51;21.10;;;10.32;;
75408;SDS011;63979;55.644;37.734;2023-04-03T04:03:53;18.65;;;10.48;;
75408;SDS011;63979;55.644;37.734;2023-04-03T04:08:56;16.42;;;9.02;;
75408;SDS011;63979;55.644;37.734;2023-04-03T04:13:58;18.67;;;10.00;;
75408;SDS011;63979;55.644;37.734;2023-04-03T04:18:59;20.45;;;10.90;;
75408;SDS011;63979;55.644;37.734;2023-04-03T04:24:00;19.95;;;9.43;;
75408;SDS011;63979;55.644;37.734;2023-04-03T04:29:01;16.20;;;10.10;;
75408;SDS011;63979;55.644;37.734;2023-04-03T04:34:03;21.00;;;9.88;;
75408;SDS011;63979;55.644;37.734;2023-04-03T04:39:04;22.88;;;9.95;;
75408;SDS011;63979;55.644;37.734;2023-04-03T04:44:05;16.85;;;9.07;;
75408;SDS011;63979;55.644;37.734;2023-04-03T04:49:06;22.58;;;8.90;;
75408;SDS011;63979;55.644;37.734;2023-04-03T04:54:07;18.73;;;10.07;;
75408;SDS011;63979;55.644;37.734;2023-04-03T04:59:09;24.63;;;10.07;;
75408;SDS011;63979;55.644;37.734;2023-04-03T05:04:10;28.95;;;10.10;;
75408;SDS011;63979;55.644;37.734;2023-04-03T05:09:13;27.70;;;10.50;;
75408;SDS011;63979;55.644;37.734;2023-04-03T05:14:15;18.27;;;9.50;;
75408;SDS011;63979;55.644;37.734;2023-04-03T05:19:16;16.63;;;8.30;;
75408;SDS011;63979;55.644;37.734;2023-04-03T05:24:17;27.02;;;14.73;;
75408;SDS011;63979;55.644;37.734;2023-04-03T05:29:18;19.67;;;7.55;;
75408;SDS011;63979;55.644;37.734;2023-04-03T05:34:20;25.17;;;8.93;;
75408;SDS011;63979;55.644;37.734;2023-04-03T05:39:21;18.40;;;8.70;;
75408;SDS011;63979;55.644;37.734;2023-04-03T05:44:23;17.60;;;8.15;;
75408;SDS011;63979;55.644;37.734;2023-04-03T05:49:24;17.77;;;8.75;;
75408;SDS011;63979;55.644;37.734;2023-04-03T05:54:26;17.60;;;9.30;;
75408;SDS011;63979;55.644;37.734;2023-04-03T05:59:29;15.90;;;8.60;;
75408;SDS011;63979;55.644;37.734;2023-04-03T06:04:30;18.77;;;8.90;;
75408;SDS011;63979;55.644;37.734;2023-04-03T06:09:32;35.60;;;9.82;;
75408;SDS011;63979;55.644;37.734;2023-04-03T06:14:33;19.98;;;8.95;;
75408;SDS011;63979;55.644;37.734;2023-04-03T06:19:36;16.00;;;8.82;;
75408;SDS011;63979;55.644;37.734;2023-04-03T06:24:37;37.72;;;11.10;;
75408;SDS011;63979;55.644;37.734;2023-04-03T06:29:38;16.45;;;9.70;;
75408;SDS011;63979;55.644;37.734;2023-04-03T06:34:40;23.55;;;10.32;;
75408;SDS011;63979;55.644;37.734;2023-04-03T06:39:41;17.60;;;8.48;;
75408;SDS011;63979;55.644;37.734;2023-04-03T06:44:42;19.10;;;9.88;;
75408;SDS011;63979;55.644;37.734;2023-04-03T06:49:44;20.20;;;8.40;;
75408;SDS011;63979;55.644;37.734;2023-04-03T06:54:45;23.45;;;9.48;;
75408;SDS011;63979;55.644;37.734;2023-04-03T06:59:46;26.08;;;10.68;;
75408;SDS011;63979;55.644;37.734;2023-04-03T07:04:47;22.90;;;10.20;;
75408;SDS011;63979;55.644;37.734;2023-04-03T07:09:49;19.50;;;9.45;;
75408;SDS011;63979;55.644;37.734;2023-04-03T07:14:50;15.15;;;9.07;;
75408;SDS011;63979;55.644;37.734;2023-04-03T07:19:51;26.65;;;15.15;;
75408;SDS011;63979;55.644;37.734;2023-04-03T07:29:56;20.42;;;9.38;;
75408;SDS011;63979;55.644;37.734;2023-04-03T07:34:58;22.02;;;10.27;;
75408;SDS011;63979;55.644;37.734;2023-04-03T07:39:58;24.40;;;11.07;;
75408;SDS011;63979;55.644;37.734;2023-04-03T07:45:00;24.75;;;10.45;;
75408;SDS011;63979;55.644;37.734;2023-04-03T07:50:03;32.22;;;12.23;;
75408;SDS011;63979;55.644;37.734;2023-04-03T07:55:05;20.98;;;9.82;;
75408;SDS011;63979;55.644;37.734;2023-04-03T08:00:07;23.63;;;11.35;;
75408;SDS011;63979;55.644;37.734;2023-04-03T08:05:09;26.17;;;11.75;;
75408;SDS011;63979;55.644;37.734;2023-04-03T08:10:10;23.20;;;11.55;;
75408;SDS011;63979;55.644;37.734;2023-04-03T08:15:12;20.02;;;11.13;;
75408;SDS011;63979;55.644;37.734;2023-04-03T08:20:12;26.30;;;11.60;;
75408;SDS011;63979;55.644;37.734;2023-04-03T08:25:14;22.98;;;12.13;;
75408;SDS011;63979;55.644;37.734;2023-04-03T08:35:17;27.20;;;11.85;;
75408;SDS011;63979;55.644;37.734;2023-04-03T08:40:18;23.30;;;12.48;;
75408;SDS011;63979;55.644;37.734;2023-04-03T08:45:27;20.48;;;10.25;;
75408;SDS011;63979;55.644;37.734;2023-04-03T08:50:51;22.08;;;10.57;;
75408;SDS011;63979;55.644;37.734;2023-04-03T08:55:57;16.40;;;9.32;;
75408;SDS011;63979;55.644;37.734;2023-04-03T09:01:04;14.90;;;8.65;;
75408;SDS011;63979;55.644;37.734;2023-04-03T09:06:15;14.88;;;9.43;;
75408;SDS011;63979;55.644;37.734;2023-04-03T09:21:52;18.55;;;8.95;;
75408;SDS011;63979;55.644;37.734;2023-04-03T09:27:08;12.45;;;8.75;;
75408;SDS011;63979;55.644;37.734;2023-04-03T09:32:32;13.23;;;9.57;;
75408;SDS011;63979;55.644;37.734;2023-04-03T09:37:36;21.35;;;9.07;;
75408;SDS011;63979;55.644;37.734;2023-04-03T09:42:38;15.27;;;8.93;;
75408;SDS011;63979;55.644;37.734;2023-04-03T09:47:42;15.27;;;9.43;;
75408;SDS011;63979;55.644;37.734;2023-04-03T09:52:45;17.48;;;9.75;;
75408;SDS011;63979;55.644;37.734;2023-04-03T09:57:48;17.30;;;9.27;;
75408;SDS011;63979;55.644;37.734;2023-04-03T10:02:51;23.73;;;10.70;;
75408;SDS011;63979;55.644;37.734;2023-04-03T10:08:31;15.75;;;9.52;;
75408;SDS011;63979;55.644;37.734;2023-04-03T10:13:26;12.25;;;7.60;;
75408;SDS011;63979;55.644;37.734;2023-04-03T10:18:41;15.80;;;7.68;;
75408;SDS011;63979;55.644;37.734;2023-04-03T10:23:44;9.77;;;7.03;;
75408;SDS011;63979;55.644;37.734;2023-04-03T10:28:57;15.32;;;8.88;;
75408;SDS011;63979;55.644;37.734;2023-04-03T10:39:19;12.10;;;8.88;;
75408;SDS011;63979;55.644;37.734;2023-04-03T10:55:37;15.40;;;8.85;;
75408;SDS011;63979;55.644;37.734;2023-04-03T11:00:47;12.32;;;8.35;;
75408;SDS011;63979;55.644;37.734;2023-04-03T11:05:52;23.30;;;9.15;;
75408;SDS011;63979;55.644;37.734;2023-04-03T11:10:55;11.88;;;7.93;;
75408;SDS011;63979;55.644;37.734;2023-04-03T11:16:00;13.98;;;7.82;;
75408;SDS011;63979;55.644;37.734;2023-04-03T11:26:22;20.30;;;7.55;;
75408;SDS011;63979;55.644;37.734;2023-04-03T11:37:11;11.30;;;6.35;;
75408;SDS011;63979;55.644;37.734;2023-04-03T11:47:47;10.40;;;5.90;;
75408;SDS011;63979;55.644;37.734;2023-04-03T12:02:58;11.55;;;6.38;;
75408;SDS011;63979;55.644;37.734;2023-04-03T12:08:16;10.18;;;4.50;;
75408;SDS011;63979;55.644;37.734;2023-04-03T12:13:37;6.95;;;4.47;;
75408;SDS011;63979;55.644;37.734;2023-04-03T12:18:58;6.72;;;5.05;;
75408;SDS011;63979;55.644;37.734;2023-04-03T12:24:15;7.10;;;5.03;;
75408;SDS011;63979;55.644;37.734;2023-04-03T12:45:26;6.60;;;4.00;;
75408;SDS011;63979;55.644;37.734;2023-04-03T12:50:28;8.63;;;4.15;;
75408;SDS011;63979;55.644;37.734;2023-04-03T12:55:33;8.93;;;4.13;;
75408;SDS011;63979;55.644;37.734;2023-04-03T13:00:35;8.15;;;4.63;;
75408;SDS011;63979;55.644;37.734;2023-04-03T13:05:39;14.23;;;4.68;;
75408;SDS011;63979;55.644;37.734;2023-04-03T13:10:47;7.15;;;4.57;;
75408;SDS011;63979;55.644;37.734;2023-04-03T13:15:50;9.10;;;4.57;;
75408;SDS011;63979;55.644;37.734;2023-04-03T13:20:51;11.25;;;4.93;;
75408;SDS011;63979;55.644;37.734;2023-04-03T13:25:54;7.90;;;5.47;;
75408;SDS011;63979;55.644;37.734;2023-04-03T13:31:03;7.30;;;4.53;;
75408;SDS011;63979;55.644;37.734;2023-04-03T13:36:18;8.65;;;4.72;;
75408;SDS011;63979;55.644;37.734;2023-04-03T13:46:29;10.77;;;5.45;;
75408;SDS011;63979;55.644;37.734;2023-04-03T13:51:31;12.30;;;4.90;;
75408;SDS011;63979;55.644;37.734;2023-04-03T14:01:41;11.68;;;5.75;;
75408;SDS011;63979;55.644;37.734;2023-04-03T14:06:49;10.20;;;4.32;;
75408;SDS011;63979;55.644;37.734;2023-04-03T14:11:57;10.20;;;4.60;;
75408;SDS011;63979;55.644;37.734;2023-04-03T14:17:19;14.15;;;4.72;;
75408;SDS011;63979;55.644;37.734;2023-04-03T14:22:24;7.25;;;4.00;;
75408;SDS011;63979;55.644;37.734;2023-04-03T14:27:36;7.15;;;3.83;;
75408;SDS011;63979;55.644;37.734;2023-04-03T14:32:47;8.50;;;4.43;;
75408;SDS011;63979;55.644;37.734;2023-04-03T14:37:49;13.43;;;4.40;;
75408;SDS011;63979;55.644;37.734;2023-04-03T14:42:52;13.15;;;5.47;;
75408;SDS011;63979;55.644;37.734;2023-04-03T14:47:55;12.88;;;5.88;;
75408;SDS011;63979;55.644;37.734;2023-04-03T14:52:57;20.58;;;6.45;;
75408;SDS011;63979;55.644;37.734;2023-04-03T14:57:59;9.00;;;5.10;;
75408;SDS011;63979;55.644;37.734;2023-04-03T15:03:00;13.07;;;6.15;;
75408;SDS011;63979;55.644;37.734;2023-04-03T15:08:01;12.48;;;7.03;;
75408;SDS011;63979;55.644;37.734;2023-04-03T15:13:02;14.60;;;7.68;;
75408;SDS011;63979;55.644;37.734;2023-04-03T15:18:04;15.48;;;6.88;;
75408;SDS011;63979;55.644;37.734;2023-04-03T15:23:06;10.80;;;6.60;;
75408;SDS011;63979;55.644;37.734;2023-04-03T15:28:08;17.90;;;7.10;;
75408;SDS011;63979;55.644;37.734;2023-04-03T15:33:16;13.32;;;6.35;;
75408;SDS011;63979;55.644;37.734;2023-04-03T15:38:17;18.05;;;6.20;;
75408;SDS011;63979;55.644;37.734;2023-04-03T15:43:18;15.45;;;6.55;;
75408;SDS011;63979;55.644;37.734;2023-04-03T15:48:19;11.15;;;5.43;;
75408;SDS011;63979;55.644;37.734;2023-04-03T15:53:21;10.38;;;5.05;;
75408;SDS011;63979;55.644;37.734;2023-04-03T15:58:22;22.67;;;6.65;;
75408;SDS011;63979;55.644;37.734;2023-04-03T16:03:23;16.45;;;6.63;;
75408;SDS011;63979;55.644;37.734;2023-04-03T16:08:25;9.82;;;5.68;;
75408;SDS011;63979;55.644;37.734;2023-04-03T16:13:26;12.98;;;5.95;;
75408;SDS011;63979;55.644;37.734;2023-04-03T16:18:28;18.20;;;5.45;;
75408;SDS011;63979;55.644;37.734;2023-04-03T16:23:30;16.25;;;5.75;;
75408;SDS011;63979;55.644;37.734;2023-04-03T16:28:31;7.47;;;4.68;;
75408;SDS011;63979;55.644;37.734;2023-04-03T16:33:33;11.02;;;5.97;;
75408;SDS011;63979;55.644;37.734;2023-04-03T16:38:34;14.68;;;7.40;;
75408;SDS011;63979;55.644;37.734;2023-04-03T16:48:37;9.45;;;5.75;;
75408;SDS011;63979;55.644;37.734;2023-04-03T16:53:40;18.02;;;6.25;;
75408;SDS011;63979;55.644;37.734;2023-04-03T16:58:42;12.75;;;6.55;;
75408;SDS011;63979;55.644;37.734;2023-04-03T17:03:43;18.17;;;6.32;;
75408;SDS011;63979;55.644;37.734;2023-04-03T17:08:46;14.27;;;7.43;;
75408;SDS011;63979;55.644;37.734;2023-04-03T17:13:48;12.88;;;8.02;;
75408;SDS011;63979;55.644;37.734;2023-04-03T17:18:50;22.45;;;7.07;;
75408;SDS011;63979;55.644;37.734;2023-04-03T17:23:54;14.02;;;7.00;;
75408;SDS011;63979;55.644;37.734;2023-04-03T17:28:58;23.77;;;9.20;;
75408;SDS011;63979;55.644;37.734;2023-04-03T17:34:02;16.33;;;8.38;;
75408;SDS011;63979;55.644;37.734;2023-04-03T17:39:04;16.40;;;8.23;;
75408;SDS011;63979;55.644;37.734;2023-04-03T17:44:06;16.88;;;7.97;;
75408;SDS011;63979;55.644;37.734;2023-04-03T17:49:07;17.52;;;7.30;;
75408;SDS011;63979;55.644;37.734;2023-04-03T17:54:13;13.02;;;6.15;;
75408;SDS011;63979;55.644;37.734;2023-04-03T17:59:14;10.30;;;6.85;;
75408;SDS011;63979;55.644;37.734;2023-04-03T18:04:17;13.05;;;7.28;;
75408;SDS011;63979;55.644;37.734;2023-04-03T18:09:19;12.80;;;6.55;;
75408;SDS011;63979;55.644;37.734;2023-04-03T18:14:25;7.13;;;5.78;;
75408;SDS011;63979;55.644;37.734;2023-04-03T18:19:27;14.38;;;6.35;;
75408;SDS011;63979;55.644;37.734;2023-04-03T18:24:31;10.27;;;5.28;;
75408;SDS011;63979;55.644;37.734;2023-04-03T18:29:34;16.95;;;7.30;;
75408;SDS011;63979;55.644;37.734;2023-04-03T18:34:38;10.98;;;6.60;;
75408;SDS011;63979;55.644;37.734;2023-04-03T18:39:39;19.88;;;7.70;;
75408;SDS011;63979;55.644;37.734;2023-04-03T18:44:42;8.45;;;4.95;;
75408;SDS011;63979;55.644;37.734;2023-04-03T18:49:46;11.70;;;6.80;;
75408;SDS011;63979;55.644;37.734;2023-04-03T18:54:47;9.13;;;6.80;;
75408;SDS011;63979;55.644;37.734;2023-04-03T18:59:49;12.60;;;8.50;;
75408;SDS011;63979;55.644;37.734;2023-04-03T19:04:51;12.00;;;7.80;;
75408;SDS011;63979;55.644;37.734;2023-04-03T19:09:53;12.57;;;8.02;;
75408;SDS011;63979;55.644;37.734;2023-04-03T19:14:55;15.20;;;8.65;;
75408;SDS011;63979;55.644;37.734;2023-04-03T19:19:56;13.68;;;8.45;;
75408;SDS011;63979;55.644;37.734;2023-04-03T19:24:59;14.00;;;9.63;;
75408;SDS011;63979;55.644;37.734;2023-04-03T19:30:00;15.77;;;9.43;;
75408;SDS011;63979;55.644;37.734;2023-04-03T19:35:02;13.98;;;9.38;;
75408;SDS011;63979;55.644;37.734;2023-04-03T19:40:05;13.90;;;9.10;;
75408;SDS011;63979;55.644;37.734;2023-04-03T19:45:07;13.45;;;9.05;;
75408;SDS011;63979;55.644;37.734;2023-04-03T19:50:10;17.15;;;10.80;;
75408;SDS011;63979;55.644;37.734;2023-04-03T19:55:12;20.58;;;11.70;;
75408;SDS011;63979;55.644;37.734;2023-04-03T20:00:14;16.90;;;11.05;;
75408;SDS011;63979;55.644;37.734;2023-04-03T20:05:15;18.38;;;11.52;;
75408;SDS011;63979;55.644;37.734;2023-04-03T20:10:17;19.08;;;12.75;;
75408;SDS011;63979;55.644;37.734;2023-04-03T20:15:18;20.55;;;12.77;;
75408;SDS011;63979;55.644;37.734;2023-04-03T20:20:19;23.75;;;14.98;;
75408;SDS011;63979;55.644;37.734;2023-04-03T20:25:20;17.63;;;12.35;;
75408;SDS011;63979;55.644;37.734;2023-04-03T20:30:21;15.93;;;10.60;;
75408;SDS011;63979;55.644;37.734;2023-04-03T20:35:23;20.20;;;13.60;;
75408;SDS011;63979;55.644;37.734;2023-04-03T20:40:24;16.20;;;11.38;;
75408;SDS011;63979;55.644;37.734;2023-04-03T20:45:27;17.42;;;11.80;;
75408;SDS011;63979;55.644;37.734;2023-04-03T20:55:30;15.85;;;11.07;;
75408;SDS011;63979;55.644;37.734;2023-04-03T21:00:31;15.77;;;11.65;;
75408;SDS011;63979;55.644;37.734;2023-04-03T21:05:32;14.88;;;11.02;;
75408;SDS011;63979;55.644;37.734;2023-04-03T21:21:18;18.13;;;12.40;;
75408;SDS011;63979;55.644;37.734;2023-04-03T21:26:24;20.08;;;12.43;;
75408;SDS011;63979;55.644;37.734;2023-04-03T21:37:06;23.92;;;13.13;;
75408;SDS011;63979;55.644;37.734;2023-04-03T21:42:08;23.13;;;13.13;;
75408;SDS011;63979;55.644;37.734;2023-04-03T21:47:09;22.08;;;12.50;;
75408;SDS011;63979;55.644;37.734;2023-04-03T21:52:12;25.40;;;12.30;;
75408;SDS011;63979;55.644;37.734;2023-04-03T21:57:13;22.60;;;13.10;;
75408;SDS011;63979;55.644;37.734;2023-04-03T22:02:14;21.30;;;13.07;;
75408;SDS011;63979;55.644;37.734;2023-04-03T22:07:15;21.95;;;13.05;;
75408;SDS011;63979;55.644;37.734;2023-04-03T22:12:16;17.52;;;13.07;;
75408;SDS011;63979;55.644;37.734;2023-04-03T22:17:17;17.20;;;12.43;;
75408;SDS011;63979;55.644;37.734;2023-04-03T22:22:18;18.85;;;11.85;;
75408;SDS011;63979;55.644;37.734;2023-04-03T22:27:20;16.67;;;11.43;;
75408;SDS011;63979;55.644;37.734;2023-04-03T22:32:21;18.17;;;10.88;;
75408;SDS011;63979;55.644;37.734;2023-04-03T22:37:22;19.05;;;11.90;;
75408;SDS011;63979;55.644;37.734;2023-04-03T22:42:23;19.27;;;12.82;;
75408;SDS011;63979;55.644;37.734;2023-04-03T22:47:24;19.98;;;12.43;;
75408;SDS011;63979;55.644;37.734;2023-04-03T22:52:25;19.10;;;11.82;;
75408;SDS011;63979;55.644;37.734;2023-04-03T22:57:26;18.02;;;12.10;;
75408;SDS011;63979;55.644;37.734;2023-04-03T23:02:27;24.98;;;12.75;;
75408;SDS011;63979;55.644;37.734;2023-04-03T23:07:28;16.30;;;11.75;;
75408;SDS011;63979;55.644;37.734;2023-04-03T23:12:29;17.50;;;11.48;;
75408;SDS011;63979;55.644;37.734;2023-04-03T23:17:30;20.23;;;11.30;;
75408;SDS011;63979;55.644;37.734;2023-04-03T23:22:32;16.05;;;10.55;;
75408;SDS011;63979;55.644;37.734;2023-04-03T23:27:33;19.90;;;11.20;;
75408;SDS011;63979;55.644;37.734;2023-04-03T23:32:34;15.02;;;10.93;;
75408;SDS011;63979;55.644;37.734;2023-04-03T23:37:40;16.92;;;10.55;;
75408;SDS011;63979;55.644;37.734;2023-04-03T23:42:42;18.77;;;11.27;;
75408;SDS011;63979;55.644;37.734;2023-04-03T23:47:43;16.25;;;11.02;;
75408;SDS011;63979;55.644;37.734;2023-04-03T23:52:44;17.38;;;10.75;;
75408;SDS011;63979;55.644;37.734;2023-04-03T23:57:46;21.13;;;10.82;;
